Time;durP1;ratioP1;P1;durP2;ratioP2;P2;SDS_P1;SDS_P2;PMS_P1;PMS_P2;Temp;Humidity;BMP_temperature;BMP_pressure;BME280_temperature;BME280_humidity;BME280_pressure;Samples;Min_cycle;Max_cycle;Signal;HPM_P1;HPM_P2
2022/05/03 00:00:00;;;;;;;9.27;7.15;;;7.50;99.90;;;;;;5044610;28;20114;-82
2022/05/03 00:02:54;;;;;;;8.77;6.68;;;7.40;99.90;;;;;;5038718;28;20076;-82
2022/05/03 00:05:31;;;;;;;7.43;6.30;;;7.40;99.90;;;;;;5047569;28;20041;-82
2022/05/03 00:08:19;;;;;;;7.97;6.53;;;7.40;99.90;;;;;;5047454;28;20098;-83
2022/05/03 00:11:11;;;;;;;8.20;6.88;;;7.30;99.90;;;;;;5044537;28;20461;-82
2022/05/03 00:13:45;;;;;;;11.25;7.25;;;7.30;99.90;;;;;;5039508;28;20502;-81
2022/05/03 00:16:13;;;;;;;7.80;6.70;;;7.30;99.90;;;;;;5032552;28;20048;-82
2022/05/03 00:18:41;;;;;;;8.63;7.03;;;7.20;99.90;;;;;;5031004;28;20696;-82
2022/05/03 00:21:06;;;;;;;10.60;7.53;;;7.20;99.90;;;;;;5031617;28;20029;-82
2022/05/03 00:23:32;;;;;;;8.88;6.88;;;7.20;99.90;;;;;;5030870;28;20048;-82
2022/05/03 00:25:58;;;;;;;8.60;6.75;;;7.20;99.90;;;;;;5046226;28;20037;-82
2022/05/03 00:28:25;;;;;;;7.85;6.93;;;7.00;99.90;;;;;;5047260;28;20044;-83
2022/05/03 00:30:52;;;;;;;10.40;7.10;;;7.10;99.90;;;;;;5040424;28;20037;-82
2022/05/03 00:33:19;;;;;;;8.68;6.95;;;7.10;99.90;;;;;;5048847;28;20091;-82
2022/05/03 00:35:45;;;;;;;7.70;6.63;;;7.00;99.90;;;;;;5027289;28;20040;-81
2022/05/03 00:38:10;;;;;;;9.45;7.22;;;7.00;99.90;;;;;;5030936;28;20029;-82
2022/05/03 00:40:44;;;;;;;9.35;7.00;;;6.90;99.90;;;;;;5047132;28;20460;-82
2022/05/03 00:43:18;;;;;;;10.30;7.47;;;6.90;99.90;;;;;;5048903;28;20447;-83
2022/05/03 00:45:54;;;;;;;10.73;7.00;;;6.90;99.90;;;;;;5045205;28;20549;-83
2022/05/03 00:48:47;;;;;;;9.90;6.60;;;6.80;99.90;;;;;;5044689;28;20045;-81
2022/05/03 00:51:17;;;;;;;9.63;6.57;;;6.80;99.90;;;;;;5027603;28;20075;-82
2022/05/03 00:54:07;;;;;;;10.75;6.72;;;6.80;99.90;;;;;;5031342;28;20034;-82
2022/05/03 00:56:57;;;;;;;7.40;6.18;;;6.70;99.90;;;;;;5046870;28;20048;-79
2022/05/03 00:59:41;;;;;;;7.72;6.30;;;6.80;99.90;;;;;;5028157;28;20033;-82
2022/05/03 01:02:08;;;;;;;8.48;6.55;;;6.70;99.90;;;;;;5049935;28;20402;-82
2022/05/03 01:05:03;;;;;;;10.35;7.07;;;6.60;99.90;;;;;;5034724;28;20119;-82
2022/05/03 01:07:41;;;;;;;8.63;6.60;;;6.50;99.90;;;;;;5034757;28;20052;-83
2022/05/03 01:10:22;;;;;;;9.32;6.93;;;6.50;99.90;;;;;;5036010;28;20032;-82
2022/05/03 01:12:56;;;;;;;7.38;6.25;;;6.40;99.90;;;;;;5069425;28;20041;-82
2022/05/03 01:15:34;;;;;;;7.68;6.10;;;6.50;99.90;;;;;;5061475;28;20029;-80
2022/05/03 01:18:20;;;;;;;8.68;6.75;;;6.50;99.90;;;;;;5047684;28;20086;-81
2022/05/03 01:21:11;;;;;;;8.02;6.40;;;6.60;99.90;;;;;;5025998;28;20502;-81
2022/05/03 01:24:22;;;;;;;9.93;6.68;;;6.70;99.90;;;;;;5035381;28;20072;-82
2022/05/03 01:27:06;;;;;;;9.15;6.95;;;6.70;99.90;;;;;;5026452;28;20072;-82
2022/05/03 01:29:36;;;;;;;8.18;6.80;;;6.80;99.90;;;;;;5051487;28;20040;-82
2022/05/03 01:32:07;;;;;;;8.18;6.93;;;6.70;99.90;;;;;;5051703;28;20036;-82
2022/05/03 01:34:34;;;;;;;9.25;7.10;;;6.60;99.90;;;;;;5051114;28;20447;-82
2022/05/03 01:36:59;;;;;;;8.23;7.18;;;6.40;99.90;;;;;;5032707;28;20040;-81
2022/05/03 01:40:00;;;;;;;8.05;7.07;;;6.50;99.90;;;;;;5066706;28;20511;-81
2022/05/03 01:42:44;;;;;;;12.52;7.75;;;6.50;99.90;;;;;;5033049;28;20045;-82
2022/05/03 01:45:10;;;;;;;;;;;6.40;99.90;;;;;;5061437;28;20128;-83
2022/05/03 01:48:03;;;;;;;8.45;7.10;;;6.30;99.90;;;;;;5050457;28;20367;-83
2022/05/03 01:51:17;;;;;;;8.25;6.68;;;6.30;99.90;;;;;;5025435;28;20048;-81
2022/05/03 01:53:53;;;;;;;8.57;7.35;;;6.30;99.90;;;;;;5065476;28;20094;-83
2022/05/03 01:56:25;;;;;;;8.45;7.20;;;6.20;99.90;;;;;;5041738;28;20033;-82
2022/05/03 01:59:25;;;;;;;9.15;7.15;;;6.10;99.90;;;;;;5062798;28;20037;-82
2022/05/03 02:02:04;;;;;;;9.80;7.00;;;6.00;99.90;;;;;;5046455;28;20060;-82
2022/05/03 02:04:30;;;;;;;8.88;7.10;;;6.00;99.90;;;;;;5029648;28;20136;-81
2022/05/03 02:07:04;;;;;;;8.88;7.45;;;6.00;99.90;;;;;;5035081;28;20064;-82
2022/05/03 02:09:46;;;;;;;9.98;7.55;;;6.00;99.90;;;;;;5050664;28;20766;-83
2022/05/03 02:12:15;;;;;;;8.70;7.28;;;5.90;99.90;;;;;;5048444;28;20045;-82
2022/05/03 02:14:52;;;;;;;8.35;7.18;;;5.90;99.90;;;;;;5048898;28;20045;-82
2022/05/03 02:17:46;;;;;;;7.82;6.63;;;5.90;99.90;;;;;;5032285;28;20048;-82
2022/05/03 02:20:42;;;;;;;8.90;6.65;;;5.90;99.90;;;;;;5047126;28;20049;-82
2022/05/03 02:23:41;;;;;;;8.40;6.55;;;5.90;99.90;;;;;;5034090;28;20041;-82
2022/05/03 02:26:18;;;;;;;9.05;6.65;;;5.80;99.90;;;;;;5031391;28;20033;-82
2022/05/03 02:29:09;;;;;;;8.75;7.32;;;5.70;99.90;;;;;;5027113;28;20039;-82
2022/05/03 02:31:49;;;;;;;11.05;8.98;;;5.70;99.90;;;;;;5033147;28;20263;-82
2022/05/03 02:34:53;;;;;;;8.60;7.70;;;5.60;99.90;;;;;;5047534;28;20048;-83
2022/05/03 02:37:22;;;;;;;8.75;7.70;;;5.60;99.90;;;;;;5029236;28;20037;-83
2022/05/03 02:40:00;;;;;;;8.70;7.50;;;5.50;99.90;;;;;;5049289;28;20458;-83
2022/05/03 02:42:26;;;;;;;8.93;7.43;;;5.50;99.90;;;;;;5048466;28;20045;-83
2022/05/03 02:44:56;;;;;;;9.90;8.45;;;5.60;99.90;;;;;;5031013;28;20045;-83
2022/05/03 02:47:28;;;;;;;9.25;8.15;;;5.70;99.90;;;;;;5047926;28;20045;-83
2022/05/03 02:50:17;;;;;;;11.05;8.88;;;5.80;99.90;;;;;;5049400;28;20042;-83
2022/05/03 02:53:09;;;;;;;12.35;9.80;;;5.90;99.90;;;;;;5047916;28;20037;-83
2022/05/03 02:55:53;;;;;;;12.27;9.50;;;6.10;99.90;;;;;;5047553;28;20117;-83
2022/05/03 02:58:47;;;;;;;12.73;9.27;;;6.30;99.90;;;;;;5026241;28;20577;-83
2022/05/03 03:01:49;;;;;;;12.70;10.77;;;6.40;99.90;;;;;;5064613;28;20111;-82
2022/05/03 03:04:55;;;;;;;12.57;10.15;;;6.50;99.90;;;;;;5044770;28;20056;-82
2022/05/03 03:07:22;;;;;;;12.25;9.75;;;6.60;99.90;;;;;;5048687;28;20103;-82
2022/05/03 03:09:54;;;;;;;11.93;9.88;;;6.60;99.90;;;;;;5028393;28;20112;-81
2022/05/03 03:12:48;;;;;;;12.82;9.82;;;6.60;99.90;;;;;;5049701;28;20090;-82
2022/05/03 03:15:18;;;;;;;12.30;10.57;;;6.70;99.90;;;;;;5031740;28;20094;-81
2022/05/03 03:17:48;;;;;;;12.13;10.82;;;6.80;99.90;;;;;;5048874;28;20031;-82
2022/05/03 03:20:16;;;;;;;14.45;10.85;;;6.80;99.90;;;;;;5047151;28;20045;-81
2022/05/03 03:22:44;;;;;;;13.93;11.43;;;6.80;99.90;;;;;;5049834;28;20033;-80
2022/05/03 03:25:15;;;;;;;15.38;11.45;;;6.80;99.90;;;;;;5046322;28;20541;-82
2022/05/03 03:27:43;;;;;;;14.57;12.10;;;6.90;99.90;;;;;;5032071;28;20045;-82
2022/05/03 03:30:10;;;;;;;13.52;11.10;;;6.90;99.90;;;;;;5047847;28;20040;-81
2022/05/03 03:32:39;;;;;;;14.60;11.60;;;7.00;99.90;;;;;;5028499;28;20037;-82
2022/05/03 03:35:05;;;;;;;13.27;11.35;;;7.10;99.90;;;;;;5030421;28;20223;-82
2022/05/03 03:37:34;;;;;;;14.52;12.00;;;7.10;99.90;;;;;;5031925;28;20079;-82
2022/05/03 03:40:00;;;;;;;12.80;10.63;;;7.10;99.90;;;;;;5046653;28;20064;-82
2022/05/03 03:42:27;;;;;;;15.80;11.75;;;7.10;99.90;;;;;;5048073;28;20041;-82
2022/05/03 03:44:55;;;;;;;16.23;11.73;;;7.10;99.90;;;;;;5031915;28;20041;-82
2022/05/03 03:47:20;;;;;;;14.55;11.93;;;7.10;99.90;;;;;;5030364;28;20045;-83
2022/05/03 03:49:46;;;;;;;15.20;12.27;;;7.00;99.90;;;;;;5032353;28;20085;-83
2022/05/03 03:52:13;;;;;;;14.27;12.00;;;7.00;99.90;;;;;;5025427;28;20049;-82
2022/05/03 03:54:42;;;;;;;17.23;12.95;;;7.00;99.90;;;;;;5044824;28;20895;-82
2022/05/03 03:57:08;;;;;;;14.70;12.50;;;7.00;99.90;;;;;;5030925;28;20033;-82
2022/05/03 03:59:36;;;;;;;15.20;12.32;;;7.10;99.90;;;;;;5029108;28;20120;-82
2022/05/03 04:02:02;;;;;;;17.83;13.48;;;7.10;99.90;;;;;;5028253;28;20580;-82
2022/05/03 04:04:34;;;;;;;15.10;13.15;;;7.10;99.90;;;;;;5031718;28;20188;-81
2022/05/03 04:07:00;;;;;;;15.90;13.30;;;7.10;99.90;;;;;;5032366;28;20048;-80
2022/05/03 04:09:27;;;;;;;16.58;13.10;;;7.20;99.90;;;;;;5044694;28;20043;-81
2022/05/03 04:11:53;;;;;;;18.33;13.07;;;7.20;99.90;;;;;;5048225;28;20052;-82
2022/05/03 04:14:19;;;;;;;17.25;14.02;;;7.20;99.90;;;;;;5046162;28;20506;-82
2022/05/03 04:16:45;;;;;;;20.20;15.32;;;7.30;99.90;;;;;;5045459;28;20075;-81
2022/05/03 04:19:12;;;;;;;17.55;13.77;;;7.30;99.90;;;;;;5048814;28;20040;-81
2022/05/03 04:21:38;;;;;;;18.20;14.27;;;7.30;99.90;;;;;;5032224;28;20033;-82
2022/05/03 04:24:04;;;;;;;18.60;13.32;;;7.30;99.90;;;;;;5048594;28;20596;-81
2022/05/03 04:26:29;;;;;;;18.90;14.25;;;7.30;99.90;;;;;;5030556;28;20402;-81
2022/05/03 04:28:59;;;;;;;19.02;15.15;;;7.30;99.90;;;;;;5047737;28;20045;-81
2022/05/03 04:31:30;;;;;;;23.42;15.18;;;7.40;99.90;;;;;;5046224;28;20049;-80
2022/05/03 04:33:56;;;;;;;20.58;14.45;;;7.40;99.90;;;;;;5049008;28;20053;-81
2022/05/03 04:36:22;;;;;;;19.92;15.57;;;7.40;99.90;;;;;;5049753;28;20047;-81
2022/05/03 04:38:49;;;;;;;21.15;15.10;;;7.40;99.90;;;;;;5026241;28;20052;-81
2022/05/03 04:41:15;;;;;;;18.67;14.95;;;7.40;99.90;;;;;;5053069;28;20078;-81
2022/05/03 04:43:42;;;;;;;21.60;15.23;;;7.50;99.90;;;;;;5035581;28;20037;-81
2022/05/03 04:46:08;;;;;;;19.77;15.23;;;7.60;99.90;;;;;;5051685;28;20037;-80
2022/05/03 04:48:33;;;;;;;19.15;14.20;;;7.50;99.90;;;;;;5050367;28;20033;-81
2022/05/03 04:50:59;;;;;;;19.58;15.90;;;7.60;99.90;;;;;;5052664;28;20048;-81
2022/05/03 04:53:24;;;;;;;18.70;14.77;;;7.60;99.90;;;;;;5051860;28;20036;-81
2022/05/03 04:55:50;;;;;;;23.20;15.98;;;7.60;99.90;;;;;;5051508;28;20405;-81
2022/05/03 04:58:16;;;;;;;19.88;15.95;;;7.70;99.90;;;;;;5032721;28;20029;-81
2022/05/03 05:00:41;;;;;;;18.83;15.05;;;7.70;99.90;;;;;;5068969;28;20029;-80
2022/05/03 05:03:07;;;;;;;18.30;14.98;;;7.80;99.90;;;;;;5050633;28;20032;-81
2022/05/03 05:05:32;;;;;;;19.58;15.63;;;7.80;99.90;;;;;;5033823;28;20049;-81
2022/05/03 05:08:06;;;;;;;19.80;16.17;;;7.80;99.90;;;;;;5053158;28;20051;-80
2022/05/03 05:10:32;;;;;;;21.23;15.30;;;7.90;99.90;;;;;;5038622;28;20453;-80
2022/05/03 05:12:59;;;;;;;18.05;15.25;;;7.90;99.90;;;;;;5052179;28;20295;-80
2022/05/03 05:15:25;;;;;;;20.05;15.82;;;7.90;99.90;;;;;;5030078;28;20296;-80
2022/05/03 05:17:52;;;;;;;18.88;16.15;;;8.00;99.90;;;;;;5050413;28;20506;-81
2022/05/03 05:20:17;;;;;;;20.77;16.40;;;8.00;99.90;;;;;;5035156;28;20116;-81
2022/05/03 05:22:44;;;;;;;21.63;16.30;;;8.00;99.90;;;;;;5050676;28;20125;-82
2022/05/03 05:25:10;;;;;;;23.73;16.40;;;8.10;99.90;;;;;;5026184;28;20041;-82
2022/05/03 05:27:36;;;;;;;22.33;16.75;;;8.10;99.90;;;;;;5050605;28;20043;-80
2022/05/03 05:30:02;;;;;;;23.08;17.80;;;8.10;99.90;;;;;;5033791;28;20040;-82
2022/05/03 05:32:28;;;;;;;26.02;18.50;;;8.10;99.90;;;;;;5039846;28;20042;-81
2022/05/03 05:34:53;;;;;;;25.83;18.80;;;8.10;99.90;;;;;;5048198;28;20049;-81
2022/05/03 05:37:19;;;;;;;28.02;20.73;;;8.20;99.90;;;;;;5051049;28;20392;-81
2022/05/03 05:39:44;;;;;;;30.35;19.63;;;8.20;99.90;;;;;;5044808;28;20033;-81
2022/05/03 05:42:11;;;;;;;27.90;20.20;;;8.20;99.90;;;;;;5032204;28;20710;-80
2022/05/03 05:44:37;;;;;;;25.80;19.85;;;8.30;99.90;;;;;;5065201;28;20041;-81
2022/05/03 05:47:04;;;;;;;30.05;20.85;;;8.40;99.90;;;;;;5049447;28;20052;-79
2022/05/03 05:49:30;;;;;;;27.92;20.13;;;8.50;99.90;;;;;;5052178;28;20048;-80
2022/05/03 05:53:31;;;;;;;25.95;19.75;;;8.50;99.90;;;;;;5049935;28;20514;-80
2022/05/03 05:54:42;;;;;;;32.03;22.38;;;8.50;99.90;;;;;;5049944;28;20041;-80
2022/05/03 05:57:08;;;;;;;31.60;22.15;;;8.60;99.90;;;;;;5050993;28;20036;-80
2022/05/03 05:59:33;;;;;;;32.90;21.73;;;8.60;99.90;;;;;;5048905;28;20095;-78
2022/05/03 06:01:59;;;;;;;31.90;23.65;;;8.60;99.90;;;;;;5051474;28;20087;-80
2022/05/03 06:04:27;;;;;;;32.83;22.80;;;8.60;99.90;;;;;;5052059;28;20037;-79
2022/05/03 06:06:54;;;;;;;33.50;23.17;;;8.60;99.90;;;;;;5051428;28;20403;-78
2022/05/03 06:09:19;;;;;;;34.35;23.90;;;8.70;99.90;;;;;;5037475;28;20676;-79
2022/05/03 06:11:45;;;;;;;33.13;23.98;;;8.70;99.90;;;;;;5051978;28;20032;-78
2022/05/03 06:14:11;;;;;;;35.15;23.13;;;8.70;99.90;;;;;;5051592;28;20388;-79
2022/05/03 06:16:50;;;;;;;34.53;24.45;;;8.70;99.90;;;;;;5051876;28;20043;-79
2022/05/03 06:19:16;;;;;;;37.38;23.92;;;8.70;99.90;;;;;;5032466;28;20041;-78
2022/05/03 06:21:42;;;;;;;34.15;24.85;;;8.70;99.90;;;;;;5043490;28;20106;-79
2022/05/03 06:24:07;;;;;;;36.00;24.23;;;8.80;99.90;;;;;;5034647;28;20059;-79
2022/05/03 06:26:34;;;;;;;35.45;25.63;;;8.80;99.90;;;;;;5047495;28;20036;-78
2022/05/03 06:29:00;;;;;;;34.35;24.55;;;8.70;99.90;;;;;;5046798;28;20499;-80
2022/05/03 06:31:26;;;;;;;39.63;24.98;;;8.80;99.90;;;;;;5029026;28;20761;-80
2022/05/03 06:33:51;;;;;;;34.33;22.98;;;8.80;99.90;;;;;;5050601;28;20127;-80
2022/05/03 06:36:17;;;;;;;32.75;22.45;;;8.80;99.90;;;;;;5039062;28;20163;-81
2022/05/03 06:38:43;;;;;;;40.00;22.85;;;8.80;99.90;;;;;;5022105;28;20037;-79
2022/05/03 06:41:09;;;;;;;34.63;23.15;;;8.90;99.90;;;;;;5039925;28;20029;-80
2022/05/03 06:43:35;;;;;;;35.65;21.88;;;8.90;99.90;;;;;;5041602;28;20060;-79
2022/05/03 06:46:00;;;;;;;32.30;22.52;;;8.90;99.90;;;;;;5041258;28;20183;-81
2022/05/03 06:48:26;;;;;;;37.45;22.20;;;8.90;99.90;;;;;;5038778;28;20037;-83
2022/05/03 06:50:52;;;;;;;21.73;11.32;;;8.90;99.90;;;;;;5039126;28;20033;-83
2022/05/03 06:53:17;;;;;;;15.30;7.07;;;9.00;99.90;;;;;;5055942;28;20402;-83
2022/05/03 06:55:43;;;;;;;11.45;5.32;;;9.00;99.90;;;;;;5041600;28;20049;-81
2022/05/03 06:58:09;;;;;;;14.55;5.22;;;9.00;99.90;;;;;;5034926;28;20041;-83
2022/05/03 07:00:34;;;;;;;16.85;5.10;;;9.00;99.90;;;;;;5027814;28;20045;-82
2022/05/03 07:03:00;;;;;;;11.63;4.70;;;9.00;99.90;;;;;;5032598;28;20033;-81
2022/05/03 07:05:26;;;;;;;13.48;4.50;;;9.10;99.90;;;;;;5034307;28;20036;-80
2022/05/03 07:07:51;;;;;;;14.48;4.95;;;9.20;99.90;;;;;;5038531;28;20116;-81
2022/05/03 07:10:17;;;;;;;16.23;4.68;;;9.20;99.90;;;;;;5033864;28;20371;-82
2022/05/03 07:12:43;;;;;;;14.68;4.90;;;9.30;99.90;;;;;;5050023;28;20041;-82
2022/05/03 07:15:09;;;;;;;14.90;4.90;;;9.30;99.90;;;;;;5017601;28;20033;-81
2022/05/03 07:23:03;;;;;;;14.40;5.53;;;9.30;99.90;;;;;;5057126;28;20302;-82
2022/05/03 07:25:30;;;;;;;12.27;5.30;;;9.20;99.90;;;;;;5027629;28;20036;-83
2022/05/03 07:27:55;;;;;;;15.90;5.72;;;9.20;99.90;;;;;;5038954;28;20052;-82
2022/05/03 07:30:21;;;;;;;17.80;5.32;;;9.30;99.90;;;;;;5040930;28;20044;-82
2022/05/03 07:32:47;;;;;;;16.15;5.75;;;9.30;99.90;;;;;;5027518;28;20068;-82
2022/05/03 07:35:13;;;;;;;19.83;6.07;;;9.40;99.90;;;;;;5035919;28;20061;-82
2022/05/03 07:37:40;;;;;;;26.20;6.15;;;9.50;99.90;;;;;;5028365;28;20817;-83
2022/05/03 07:40:07;;;;;;;18.63;6.40;;;9.50;99.90;;;;;;5042004;28;20072;-82
2022/05/03 07:42:32;;;;;;;22.17;6.00;;;9.60;99.90;;;;;;5046806;28;20040;-83
2022/05/03 07:44:58;;;;;;;20.30;5.70;;;9.70;99.90;;;;;;5030087;28;20033;-83
2022/05/03 07:47:24;;;;;;;17.98;5.53;;;9.70;99.90;;;;;;5044306;28;20075;-83
2022/05/03 07:49:50;;;;;;;20.83;5.40;;;9.80;99.90;;;;;;5044114;28;20044;-81
2022/05/03 07:52:16;;;;;;;20.60;6.18;;;9.80;99.90;;;;;;5039263;28;20045;-83
2022/05/03 07:54:42;;;;;;;21.90;6.40;;;9.90;99.90;;;;;;5044984;28;20044;-84
2022/05/03 07:57:09;;;;;;;23.80;6.60;;;10.00;99.90;;;;;;5029221;28;20120;-83
2022/05/03 07:59:35;;;;;;;16.92;5.35;;;10.10;99.90;;;;;;5030578;28;20033;-83
2022/05/03 08:02:01;;;;;;;21.60;5.25;;;10.20;99.90;;;;;;5021986;28;20097;-83
2022/05/03 08:04:27;;;;;;;17.15;5.32;;;10.30;99.90;;;;;;5030071;28;20403;-83
2022/05/03 08:06:52;;;;;;;16.58;5.32;;;10.30;99.90;;;;;;5045486;28;20045;-84
2022/05/03 08:09:18;;;;;;;24.45;5.30;;;10.40;99.90;;;;;;5046691;28;20037;-83
2022/05/03 08:11:44;;;;;;;17.13;4.55;;;10.40;99.90;;;;;;5030968;28;20112;-84
2022/05/03 08:14:09;;;;;;;17.60;5.03;;;10.40;99.90;;;;;;5032143;28;20037;-82
2022/05/03 08:16:35;;;;;;;19.95;5.07;;;10.40;99.90;;;;;;5048573;28;20514;-85
2022/05/03 08:19:02;;;;;;;14.35;4.68;;;10.50;99.90;;;;;;5050464;28;20043;-84
2022/05/03 08:21:27;;;;;;;19.05;4.88;;;10.50;99.90;;;;;;5047609;28;20109;-85
2022/05/03 08:23:54;;;;;;;15.05;4.63;;;10.60;99.90;;;;;;5034950;28;20068;-84
2022/05/03 08:26:20;;;;;;;15.70;4.57;;;10.60;99.90;;;;;;5031139;28;20082;-86
2022/05/03 08:28:46;;;;;;;17.25;4.50;;;10.70;99.90;;;;;;5032111;28;20064;-86
2022/05/03 08:31:12;;;;;;;20.05;4.05;;;10.60;99.90;;;;;;5026901;28;20787;-84
2022/05/03 08:33:37;;;;;;;22.88;4.88;;;10.60;99.90;;;;;;5043952;28;20037;-84
2022/05/03 08:36:04;;;;;;;19.73;4.60;;;10.60;99.90;;;;;;5031454;28;20033;-85
2022/05/03 08:44:00;;;;;;;;;;;10.60;99.90;;;;;;5051598;28;20118;-84
2022/05/03 08:46:26;;;;;;;14.95;3.95;;;10.60;99.90;;;;;;5048429;28;19928;-86
2022/05/03 08:49:00;;;;;;;14.68;3.83;;;10.70;99.90;;;;;;5038509;28;20123;-86
2022/05/03 08:51:29;;;;;;;12.20;3.67;;;10.70;99.90;;;;;;5043139;28;20041;-86
2022/05/03 08:53:55;;;;;;;17.02;3.80;;;10.70;99.90;;;;;;5045533;28;20041;-86
2022/05/03 08:56:21;;;;;;;18.20;4.25;;;10.80;99.90;;;;;;5051612;28;20428;-86
2022/05/03 08:58:47;;;;;;;15.18;3.67;;;10.80;99.90;;;;;;5029864;28;20037;-86
2022/05/03 09:01:13;;;;;;;18.80;4.03;;;10.90;99.90;;;;;;5030792;28;20075;-86
2022/05/03 09:03:39;;;;;;;21.17;4.03;;;10.90;99.90;;;;;;5051804;28;20167;-85
2022/05/03 09:06:05;;;;;;;15.93;3.90;;;10.90;99.90;;;;;;5051568;28;20452;-86
2022/05/03 09:08:32;;;;;;;19.15;4.00;;;11.00;99.90;;;;;;5051123;28;20083;-86
2022/05/03 09:10:59;;;;;;;16.98;4.03;;;11.00;99.90;;;;;;5032071;28;20392;-86
2022/05/03 09:13:26;;;;;;;14.50;3.75;;;11.10;99.90;;;;;;5040906;28;20037;-84
2022/05/03 09:15:55;;;;;;;23.27;3.97;;;11.20;99.90;;;;;;5046661;28;20043;-88
2022/05/03 09:18:26;;;;;;;16.27;4.22;;;11.20;99.90;;;;;;5014746;28;20041;-87
2022/05/03 09:23:46;;;;;;;18.10;4.25;;;11.40;99.90;;;;;;5030190;28;20045;-86
2022/05/03 09:26:24;;;;;;;15.82;3.72;;;11.60;99.90;;;;;;5014656;28;20033;-87
2022/05/03 09:28:55;;;;;;;16.58;3.63;;;11.70;99.90;;;;;;5031126;28;20488;-86
2022/05/03 09:31:46;;;;;;;14.60;3.58;;;11.80;99.90;;;;;;5047732;28;20487;-87
2022/05/03 09:34:23;;;;;;;11.38;3.20;;;12.00;99.90;;;;;;5047750;28;20522;-86
2022/05/03 09:36:51;;;;;;;14.43;3.40;;;12.00;99.90;;;;;;5048266;28;20037;-86
2022/05/03 09:39:27;;;;;;;12.40;2.83;;;11.90;99.90;;;;;;5031622;28;20075;-86
2022/05/03 09:42:26;;;;;;;12.95;3.65;;;12.00;99.90;;;;;;5048003;28;20120;-86
2022/05/03 09:45:03;;;;;;;12.32;2.67;;;11.90;99.90;;;;;;5008979;28;20045;-85
2022/05/03 09:47:34;;;;;;;10.57;2.50;;;11.90;99.90;;;;;;5030776;28;20068;-85
2022/05/03 09:50:00;;;;;;;11.13;3.25;;;12.10;99.90;;;;;;5031217;28;20103;-85
2022/05/03 09:52:36;;;;;;;11.65;2.75;;;12.20;99.90;;;;;;5049580;28;20048;-86
2022/05/03 09:55:04;;;;;;;7.78;3.00;;;12.40;99.90;;;;;;5045782;28;20122;-85
2022/05/03 09:57:33;;;;;;;10.27;2.78;;;12.60;99.90;;;;;;5030064;28;20052;-85
2022/05/03 10:00:00;;;;;;;13.98;2.70;;;12.70;99.90;;;;;;5039354;28;20045;-85
2022/05/03 10:02:28;;;;;;;12.50;2.70;;;12.80;99.90;;;;;;5020514;28;20051;-86
2022/05/03 10:04:58;;;;;;;10.63;3.20;;;13.00;99.90;;;;;;5040334;28;20834;-86
2022/05/03 10:07:29;;;;;;;10.07;2.53;;;13.20;99.90;;;;;;5028789;28;20119;-86
2022/05/03 10:09:55;;;;;;;10.98;2.65;;;13.20;99.90;;;;;;5030525;28;20095;-85
2022/05/03 10:12:21;;;;;;;8.85;2.97;;;13.40;99.90;;;;;;5046236;28;20041;-84
2022/05/03 10:14:48;;;;;;;8.95;2.30;;;13.60;99.90;;;;;;5028459;28;20127;-85
2022/05/03 10:20:39;;;;;;;7.63;2.47;;;13.70;99.90;;;;;;5066780;28;20039;-85
2022/05/03 10:23:21;;;;;;;8.30;2.45;;;13.40;99.90;;;;;;5030050;28;20036;-85
2022/05/03 10:25:47;;;;;;;6.53;2.33;;;13.30;99.90;;;;;;5027421;28;20079;-88
2022/05/03 10:28:13;;;;;;;10.45;2.70;;;13.40;99.90;;;;;;5030847;28;20180;-86
2022/05/03 10:30:59;;;;;;;10.00;2.42;;;13.50;99.90;;;;;;5055671;28;20040;-82
2022/05/03 10:33:24;;;;;;;10.95;2.70;;;13.50;99.90;;;;;;5045055;28;20526;-84
2022/05/03 10:35:51;;;;;;;10.18;2.47;;;13.40;99.90;;;;;;5049674;28;20053;-86
2022/05/03 10:38:38;;;;;;;10.82;2.20;;;13.30;99.90;;;;;;5051118;28;20041;-86
2022/05/03 10:41:22;;;;;;;12.02;2.60;;;13.30;99.90;;;;;;5030417;28;20082;-86
2022/05/03 10:43:48;;;;;;;8.75;2.90;;;13.40;99.90;;;;;;5044858;28;20041;-86
2022/05/03 10:46:20;;;;;;;12.13;2.67;;;13.70;99.90;;;;;;5046920;28;20032;-87
2022/05/03 10:49:04;;;;;;;7.93;2.17;;;13.50;99.90;;;;;;5029816;28;20036;-85
2022/05/03 10:51:30;;;;;;;7.70;2.13;;;13.80;99.90;;;;;;5045535;28;20044;-84
2022/05/03 10:53:59;;;;;;;10.38;2.38;;;13.60;99.90;;;;;;5046182;28;20170;-86
2022/05/03 10:56:25;;;;;;;9.55;2.50;;;13.40;99.90;;;;;;5043905;28;20040;-84
2022/05/03 10:59:05;;;;;;;6.43;2.42;;;13.50;99.90;;;;;;5028159;28;20490;-87
2022/05/03 11:01:33;;;;;;;7.95;1.80;;;13.30;99.90;;;;;;5027713;28;20048;-86
2022/05/03 11:03:58;;;;;;;7.82;2.15;;;13.20;99.90;;;;;;5041194;28;20048;-86
2022/05/03 11:06:25;;;;;;;10.30;2.33;;;13.30;99.90;;;;;;5033004;28;20430;-85
2022/05/03 11:11:49;;;;;;;11.85;2.60;;;13.50;99.90;;;;;;5031038;28;20460;-88
2022/05/03 11:14:21;;;;;;;7.97;1.95;;;13.50;99.90;;;;;;5030606;28;20488;-86
2022/05/03 11:17:10;;;;;;;4.70;1.60;;;13.40;99.90;;;;;;5014607;28;20042;-86
2022/05/03 11:19:56;;;;;;;4.40;1.90;;;13.60;99.90;;;;;;5014609;28;20037;-85
2022/05/03 11:22:25;;;;;;;5.88;1.73;;;13.50;99.90;;;;;;5031020;28;20033;-86
2022/05/03 11:24:53;;;;;;;7.60;1.90;;;13.50;99.90;;;;;;5030124;28;20139;-87
2022/05/03 11:27:21;;;;;;;8.68;2.70;;;13.80;99.90;;;;;;5030722;28;20045;-88
2022/05/03 11:29:49;;;;;;;9.07;2.05;;;13.80;99.90;;;;;;5014162;28;20033;-86
2022/05/03 11:32:33;;;;;;;9.88;1.80;;;13.90;99.90;;;;;;5030783;28;20075;-86
2022/05/03 11:35:08;;;;;;;8.10;2.35;;;14.00;99.90;;;;;;5013396;28;20044;-86
2022/05/03 11:37:35;;;;;;;10.55;2.20;;;13.90;99.90;;;;;;5014298;28;20037;-86
2022/05/03 11:40:03;;;;;;;8.05;2.08;;;14.10;99.90;;;;;;5013813;28;20037;-86
2022/05/03 11:42:35;;;;;;;7.13;1.98;;;13.90;99.90;;;;;;5030441;28;20144;-86
2022/05/03 11:45:01;;;;;;;15.98;2.30;;;14.20;99.90;;;;;;5029652;28;20042;-84
2022/05/03 11:47:28;;;;;;;7.35;2.30;;;14.50;99.90;;;;;;5030344;28;20099;-86
2022/05/03 11:49:56;;;;;;;7.40;2.05;;;14.30;99.90;;;;;;5030299;28;20506;-85
2022/05/03 11:57:55;;;;;;;5.30;1.80;;;13.90;99.90;;;;;;5060520;28;20055;-87
2022/05/03 12:00:21;;;;;;;7.00;2.17;;;14.30;99.90;;;;;;5031601;28;20033;-84
2022/05/03 12:02:46;;;;;;;7.68;2.05;;;14.10;99.90;;;;;;5039596;28;20125;-85
2022/05/03 12:05:20;;;;;;;7.65;1.73;;;13.70;99.90;;;;;;5028758;28;20152;-85
2022/05/03 12:07:49;;;;;;;;;;;13.80;99.90;;;;;;5029988;28;20040;-86
2022/05/03 12:10:21;;;;;;;6.25;1.92;;;14.00;99.90;;;;;;5047341;28;19983;-87
2022/05/03 12:13:02;;;;;;;7.30;2.03;;;14.10;99.90;;;;;;5030461;28;20466;-86
2022/05/03 12:15:28;;;;;;;7.35;1.90;;;14.50;99.90;;;;;;5031163;28;20098;-86
2022/05/03 12:18:01;;;;;;;5.22;1.98;;;14.20;99.90;;;;;;5046490;28;20396;-86
2022/05/03 12:20:39;;;;;;;7.30;1.90;;;14.00;99.90;;;;;;5025334;28;20101;-86
2022/05/03 12:23:10;;;;;;;8.57;2.08;;;14.30;99.90;;;;;;5033121;28;20118;-86
2022/05/03 12:25:37;;;;;;;6.88;2.20;;;14.50;99.90;;;;;;5030363;28;20033;-87
2022/05/03 12:28:04;;;;;;;8.95;2.28;;;14.20;99.90;;;;;;5025003;28;20044;-84
2022/05/03 12:30:31;;;;;;;4.70;1.80;;;13.90;99.90;;;;;;5028453;28;20079;-85
2022/05/03 12:33:04;;;;;;;5.57;1.83;;;13.90;99.90;;;;;;5031361;28;20045;-85
2022/05/03 12:35:32;;;;;;;8.30;2.20;;;13.90;99.90;;;;;;5026764;28;20052;-85
2022/05/03 12:37:58;;;;;;;6.65;1.90;;;14.00;99.90;;;;;;5028227;28;20033;-87
2022/05/03 12:40:25;;;;;;;6.68;1.95;;;13.80;99.90;;;;;;5030636;28;20047;-84
2022/05/03 12:42:51;;;;;;;5.97;2.33;;;13.90;99.90;;;;;;5047638;28;20083;-85
2022/05/03 12:45:19;;;;;;;8.02;2.22;;;14.10;99.90;;;;;;5047198;28;20526;-83
2022/05/03 12:47:45;;;;;;;8.15;2.45;;;13.80;99.90;;;;;;5048565;28;20095;-87
2022/05/03 12:50:11;;;;;;;7.65;2.25;;;13.70;99.90;;;;;;5031789;28;20502;-85
2022/05/03 12:52:36;;;;;;;9.80;2.40;;;14.00;99.90;;;;;;5048036;28;20040;-85
2022/05/03 12:55:02;;;;;;;12.13;2.00;;;14.50;99.90;;;;;;5031260;28;20152;-86
2022/05/03 13:00:14;;;;;;;7.75;2.58;;;15.90;99.90;;;;;;5051302;28;20461;-84
2022/05/03 13:02:40;;;;;;;7.65;1.70;;;16.50;99.90;;;;;;5052100;28;20533;-85
2022/05/03 13:05:06;;;;;;;8.10;1.75;;;16.00;98.90;;;;;;5034631;28;20124;-85
2022/05/03 13:07:33;;;;;;;9.15;2.13;;;16.30;99.30;;;;;;5067391;28;20452;-86
2022/05/03 13:09:59;;;;;;;6.32;2.00;;;16.50;98.30;;;;;;5030966;28;20045;-85
2022/05/03 13:12:24;;;;;;;7.53;2.20;;;16.70;98.80;;;;;;5035274;28;20044;-84
2022/05/03 13:14:50;;;;;;;9.85;1.70;;;16.90;99.20;;;;;;5067695;28;20472;-85
2022/05/03 13:17:16;;;;;;;9.52;2.13;;;16.70;98.90;;;;;;5035120;28;20131;-84
2022/05/03 13:19:41;;;;;;;7.38;1.80;;;16.90;99.10;;;;;;5034715;28;20037;-85
2022/05/03 13:22:07;;;;;;;10.05;2.08;;;17.20;99.00;;;;;;5035229;28;20048;-83
2022/05/03 13:24:33;;;;;;;6.93;2.15;;;17.00;98.00;;;;;;5049263;28;20063;-83
2022/05/03 13:26:58;;;;;;;7.47;1.90;;;16.20;96.80;;;;;;5050461;28;20051;-83
2022/05/03 13:29:24;;;;;;;7.53;2.28;;;15.70;97.00;;;;;;5032998;28;20085;-83
2022/05/03 13:31:51;;;;;;;6.65;2.05;;;15.50;97.90;;;;;;5045100;28;20434;-85